createdAt,value
2018-03-26T00:00:21.460Z,16.10
2018-03-26T00:01:22.039Z,16.09
2018-03-26T00:02:22.618Z,16.04
2018-03-26T00:03:23.244Z,16.05
2018-03-26T00:04:23.823Z,16.00
2018-03-26T00:05:24.400Z,15.98
2018-03-26T00:06:25.027Z,16.00
2018-03-26T00:07:25.604Z,15.98
2018-03-26T00:08:26.186Z,16.00
2018-03-26T00:09:26.763Z,16.02
2018-03-26T00:10:27.376Z,15.95
2018-03-26T00:11:27.954Z,16.01
2018-03-26T00:12:28.535Z,15.94
2018-03-26T00:13:29.162Z,16.01
2018-03-26T00:14:29.738Z,15.97
2018-03-26T00:15:30.314Z,16.05
2018-03-26T00:16:30.940Z,16.09
2018-03-26T00:17:31.517Z,16.09
2018-03-26T00:18:32.095Z,16.01
2018-03-26T00:19:32.721Z,15.98
2018-03-26T00:20:33.298Z,15.92
2018-03-26T00:21:33.875Z,15.97
2018-03-26T00:22:34.503Z,15.92
2018-03-26T00:23:35.079Z,15.94
2018-03-26T00:24:35.656Z,15.98
2018-03-26T00:25:36.233Z,15.83
2018-03-26T00:26:36.809Z,15.86
2018-03-26T00:27:37.388Z,15.82
2018-03-26T00:28:37.964Z,15.88
2018-03-26T00:29:38.540Z,15.88
2018-03-26T00:30:39.116Z,15.82
2018-03-26T00:31:39.693Z,15.80
2018-03-26T00:32:40.270Z,15.83
2018-03-26T00:33:40.846Z,15.84
2018-03-26T00:34:41.478Z,15.80
2018-03-26T00:35:42.054Z,15.82
2018-03-26T00:36:42.631Z,15.90
2018-03-26T00:37:43.259Z,15.86
2018-03-26T00:38:43.834Z,15.84
2018-03-26T00:39:44.414Z,15.88
2018-03-26T00:40:45.035Z,15.88
2018-03-26T00:41:45.612Z,15.91
2018-03-26T00:42:46.195Z,15.82
2018-03-26T00:43:46.769Z,15.84
2018-03-26T00:44:47.347Z,15.86
2018-03-26T00:45:47.965Z,15.86
2018-03-26T00:46:48.542Z,15.92
2018-03-26T00:47:49.117Z,15.86
2018-03-26T00:48:49.696Z,15.84
2018-03-26T00:49:50.275Z,15.84
2018-03-26T00:50:50.850Z,15.88
2018-03-26T00:51:51.427Z,15.86
2018-03-26T00:52:52.002Z,15.88
2018-03-26T00:53:52.579Z,15.80
2018-03-26T00:54:53.155Z,15.92
2018-03-26T00:55:53.780Z,15.82
2018-03-26T00:56:54.511Z,15.88
2018-03-26T00:57:55.088Z,15.86
2018-03-26T00:58:55.665Z,15.82
2018-03-26T00:59:56.285Z,15.91
2018-03-26T01:00:56.861Z,15.76
2018-03-26T01:01:57.435Z,15.83
2018-03-26T01:02:58.061Z,15.90
2018-03-26T01:03:58.637Z,15.84
2018-03-26T01:04:59.215Z,15.86
2018-03-26T01:05:59.791Z,15.86
2018-03-26T01:07:00.370Z,15.92
2018-03-26T01:08:00.945Z,15.90
2018-03-26T01:09:01.526Z,15.92
2018-03-26T01:10:02.098Z,15.97
2018-03-26T01:11:02.675Z,16.00
2018-03-26T01:12:03.251Z,15.92
2018-03-26T01:13:03.881Z,15.92
2018-03-26T01:14:04.508Z,15.83
2018-03-26T01:15:05.085Z,15.82
2018-03-26T01:16:05.662Z,15.82
2018-03-26T01:17:06.241Z,15.77
2018-03-26T01:18:06.818Z,15.83
2018-03-26T01:19:07.396Z,15.83
2018-03-26T01:20:07.973Z,15.84
2018-03-26T01:21:08.550Z,15.83
2018-03-26T01:22:09.276Z,15.83
2018-03-26T01:23:09.852Z,15.77
2018-03-26T01:24:10.429Z,15.77
2018-03-26T01:25:11.005Z,15.82
2018-03-26T01:26:11.581Z,15.88
2018-03-26T01:27:12.159Z,15.86
2018-03-26T01:28:12.735Z,15.88
2018-03-26T01:29:13.313Z,15.83
2018-03-26T01:30:14.039Z,15.79
2018-03-26T01:31:14.614Z,15.86
2018-03-26T01:32:15.190Z,15.80
2018-03-26T01:33:15.816Z,15.82
2018-03-26T01:34:16.443Z,15.86
2018-03-26T01:35:17.020Z,15.80
2018-03-26T01:36:17.594Z,15.76
2018-03-26T01:37:18.170Z,15.90
2018-03-26T01:38:18.745Z,15.79
2018-03-26T01:39:19.323Z,15.79
2018-03-26T01:40:20.049Z,15.90
2018-03-26T01:41:20.626Z,15.79
2018-03-26T01:42:21.205Z,15.79
2018-03-26T01:43:21.780Z,15.80
2018-03-26T01:44:22.357Z,15.73
2018-03-26T01:45:22.935Z,15.84
2018-03-26T01:46:23.512Z,15.83
2018-03-26T01:47:24.088Z,15.90
2018-03-26T01:48:24.664Z,15.84
2018-03-26T01:49:25.242Z,15.88
2018-03-26T01:50:25.817Z,15.84
2018-03-26T01:51:26.395Z,15.84
2018-03-26T01:52:27.020Z,15.79
2018-03-26T01:53:27.646Z,15.86
2018-03-26T01:54:28.222Z,15.90
2018-03-26T01:55:28.798Z,15.83
2018-03-26T01:56:29.373Z,15.84
2018-03-26T01:57:29.955Z,15.88
2018-03-26T01:58:30.575Z,15.86
2018-03-26T01:59:31.152Z,15.88
2018-03-26T02:00:31.729Z,15.90
2018-03-26T02:01:32.304Z,15.98
2018-03-26T02:02:32.878Z,15.94
2018-03-26T02:03:33.455Z,15.92
2018-03-26T02:04:34.030Z,15.98
2018-03-26T02:05:34.605Z,15.98
2018-03-26T02:06:35.180Z,15.91
2018-03-26T02:07:35.755Z,15.98
2018-03-26T02:08:36.329Z,15.92
2018-03-26T02:09:36.903Z,15.97
2018-03-26T02:10:42.531Z,15.91
2018-03-26T02:11:43.158Z,15.90
2018-03-26T02:12:43.736Z,15.88
2018-03-26T02:13:44.313Z,15.83
2018-03-26T02:14:44.939Z,15.88
2018-03-26T02:15:45.515Z,15.86
2018-03-26T02:16:46.092Z,15.90
2018-03-26T02:17:46.669Z,15.83
2018-03-26T02:18:47.247Z,15.82
2018-03-26T02:19:47.829Z,15.90
2018-03-26T02:20:48.403Z,15.84
2018-03-26T02:21:48.980Z,15.83
2018-03-26T02:22:49.557Z,15.86
2018-03-26T02:23:50.133Z,15.91
2018-03-26T02:24:50.758Z,15.80
2018-03-26T02:25:51.335Z,15.83
2018-03-26T02:26:51.961Z,15.83
2018-03-26T02:27:52.537Z,15.90
2018-03-26T02:28:53.112Z,15.80
2018-03-26T02:29:53.687Z,15.76
2018-03-26T02:30:54.311Z,15.83
2018-03-26T02:31:54.888Z,15.83
2018-03-26T02:32:55.467Z,15.80
2018-03-26T02:33:56.040Z,15.79
2018-03-26T02:34:56.616Z,15.80
2018-03-26T02:35:57.192Z,15.84
2018-03-26T02:36:57.766Z,15.77
2018-03-26T02:37:58.343Z,15.77
2018-03-26T02:38:58.918Z,15.77
2018-03-26T02:39:59.545Z,15.84
2018-03-26T02:41:00.121Z,15.72
2018-03-26T02:42:00.702Z,15.82
2018-03-26T02:43:01.274Z,15.76
2018-03-26T02:44:01.907Z,15.75
2018-03-26T02:45:02.477Z,15.76
2018-03-26T02:46:03.055Z,15.68
2018-03-26T02:47:03.633Z,15.68
2018-03-26T02:48:04.209Z,15.68
2018-03-26T02:49:04.785Z,15.75
2018-03-26T02:50:05.358Z,15.68
2018-03-26T02:51:05.988Z,15.72
2018-03-26T02:52:06.603Z,15.73
2018-03-26T02:53:07.177Z,15.73
2018-03-26T02:54:07.753Z,15.76
2018-03-26T02:55:08.333Z,15.76
2018-03-26T02:56:08.955Z,15.75
2018-03-26T02:57:09.530Z,15.75
2018-03-26T02:58:10.109Z,15.68
2018-03-26T02:59:10.682Z,15.77
2018-03-26T03:00:11.261Z,15.72
2018-03-26T03:01:11.886Z,15.61
2018-03-26T03:02:12.464Z,15.76
2018-03-26T03:03:13.092Z,15.70
2018-03-26T03:04:13.666Z,15.65
2018-03-26T03:05:14.243Z,15.73
2018-03-26T03:06:14.820Z,15.68
2018-03-26T03:07:15.397Z,15.72
2018-03-26T03:08:16.032Z,15.62
2018-03-26T03:09:16.600Z,15.65
2018-03-26T03:10:17.174Z,15.65
2018-03-26T03:11:17.751Z,15.68
2018-03-26T03:12:18.327Z,15.62
2018-03-26T03:13:18.902Z,15.67
2018-03-26T03:14:19.480Z,15.70
2018-03-26T03:15:20.107Z,15.65
2018-03-26T03:16:20.726Z,15.64
2018-03-26T03:17:21.300Z,15.59
2018-03-26T03:18:21.875Z,15.61
2018-03-26T03:19:22.601Z,15.61
2018-03-26T03:21:24.737Z,15.54
2018-03-26T03:22:26.318Z,15.54
2018-03-26T03:23:26.894Z,15.54
2018-03-26T03:25:29.036Z,15.58
2018-03-26T03:27:09.254Z,15.59
2018-03-26T03:28:09.823Z,15.47
2018-03-26T03:29:10.394Z,15.40
2018-03-26T03:30:10.965Z,15.49
2018-03-26T03:31:11.542Z,15.49
2018-03-26T03:32:12.119Z,15.47
2018-03-26T03:33:12.701Z,15.52
2018-03-26T03:34:13.278Z,15.47
2018-03-26T03:35:13.854Z,15.47
2018-03-26T03:36:14.432Z,15.49
2018-03-26T03:37:15.010Z,15.46
2018-03-26T03:38:15.634Z,15.47
2018-03-26T03:39:16.215Z,15.47
2018-03-26T03:40:16.791Z,15.52
2018-03-26T03:41:17.408Z,15.54
2018-03-26T03:42:17.984Z,15.49
2018-03-26T03:43:18.560Z,15.47
2018-03-26T03:44:19.183Z,15.54
2018-03-26T03:45:19.810Z,15.43
2018-03-26T03:46:20.426Z,15.40
2018-03-26T03:47:21.003Z,15.47
2018-03-26T03:48:21.578Z,15.47
2018-03-26T03:49:22.155Z,15.46
2018-03-26T03:50:22.730Z,15.51
2018-03-26T03:51:23.306Z,15.52
2018-03-26T03:52:23.880Z,15.42
2018-03-26T03:53:24.456Z,15.37
2018-03-26T03:54:25.031Z,15.33
2018-03-26T03:55:25.658Z,15.35
2018-03-26T03:56:26.236Z,15.47
2018-03-26T03:57:26.812Z,15.42
2018-03-26T03:58:27.388Z,15.49
2018-03-26T03:59:28.016Z,15.44
2018-03-26T04:00:28.592Z,15.52
2018-03-26T04:01:29.220Z,15.46
2018-03-26T04:02:29.797Z,15.43
2018-03-26T04:03:30.372Z,15.47
2018-03-26T04:04:30.948Z,15.47
2018-03-26T04:05:31.524Z,15.51
2018-03-26T04:06:32.099Z,15.46
2018-03-26T04:07:32.673Z,15.51
2018-03-26T04:08:33.308Z,15.44
2018-03-26T04:09:33.877Z,15.39
2018-03-26T04:10:34.454Z,15.49
2018-03-26T04:11:35.029Z,15.54
2018-03-26T04:12:35.606Z,15.52
2018-03-26T04:13:36.381Z,15.54
2018-03-26T04:14:36.972Z,15.54
2018-03-26T04:15:37.532Z,15.46
2018-03-26T04:16:38.161Z,15.51
2018-03-26T04:17:38.733Z,15.49
2018-03-26T04:18:39.307Z,15.49
2018-03-26T04:19:39.889Z,15.49
2018-03-26T04:20:40.502Z,15.49
2018-03-26T04:21:41.089Z,15.44
2018-03-26T04:22:41.699Z,15.49
2018-03-26T04:23:42.280Z,15.51
2018-03-26T04:24:42.901Z,15.54
2018-03-26T04:25:43.479Z,15.42
2018-03-26T04:26:44.052Z,15.47
2018-03-26T04:27:44.631Z,15.44
2018-03-26T04:28:45.250Z,15.52
2018-03-26T04:29:45.826Z,15.47
2018-03-26T04:30:51.407Z,15.43
2018-03-26T04:31:51.982Z,15.47
2018-03-26T04:32:52.561Z,15.43
2018-03-26T04:33:53.187Z,15.52
2018-03-26T04:34:53.764Z,15.44
2018-03-26T04:35:54.343Z,15.49
2018-03-26T04:36:54.972Z,15.51
2018-03-26T04:37:55.547Z,15.44
2018-03-26T04:38:56.123Z,15.52
2018-03-26T04:39:56.698Z,15.51
2018-03-26T04:40:57.277Z,15.46
2018-03-26T04:41:57.856Z,15.44
2018-03-26T04:42:58.431Z,15.52
2018-03-26T04:43:59.060Z,15.49
2018-03-26T04:44:59.639Z,15.51
2018-03-26T04:46:00.237Z,15.52
2018-03-26T04:47:00.798Z,15.49
2018-03-26T04:48:01.463Z,15.46
2018-03-26T04:49:02.039Z,15.47
2018-03-26T04:50:02.615Z,15.44
2018-03-26T04:51:03.192Z,15.46
2018-03-26T04:52:03.766Z,15.47
2018-03-26T04:53:04.391Z,15.43
2018-03-26T04:54:05.065Z,15.51
2018-03-26T04:55:05.592Z,15.40
2018-03-26T04:56:06.210Z,15.54
2018-03-26T04:57:06.786Z,15.44
2018-03-26T04:58:07.361Z,15.46
2018-03-26T04:59:07.938Z,15.47
2018-03-26T05:00:08.514Z,15.46
2018-03-26T05:01:09.133Z,15.44
2018-03-26T05:02:09.735Z,15.39
2018-03-26T05:03:10.283Z,15.37
2018-03-26T05:04:10.859Z,15.29
2018-03-26T05:05:11.484Z,15.35
2018-03-26T05:06:12.062Z,15.33
2018-03-26T05:07:12.636Z,15.36
2018-03-26T05:08:13.212Z,15.42
2018-03-26T05:09:13.792Z,15.35
2018-03-26T05:10:14.364Z,15.42
2018-03-26T05:11:14.942Z,15.35
2018-03-26T05:12:15.517Z,15.31
2018-03-26T05:13:16.092Z,15.31
2018-03-26T05:14:16.674Z,15.33
2018-03-26T05:15:17.394Z,15.33
2018-03-26T05:16:18.022Z,15.31
2018-03-26T05:17:18.598Z,15.37
2018-03-26T05:18:19.173Z,15.37
2018-03-26T05:19:19.748Z,15.37
2018-03-26T05:20:20.331Z,15.33
2018-03-26T05:21:20.902Z,15.33
2018-03-26T05:22:21.479Z,15.36
2018-03-26T05:23:22.057Z,15.31
2018-03-26T05:24:22.631Z,15.33
2018-03-26T05:25:23.259Z,15.29
2018-03-26T05:26:23.835Z,15.31
2018-03-26T05:27:24.418Z,15.25
2018-03-26T05:28:24.990Z,15.28
2018-03-26T05:29:25.561Z,15.31
2018-03-26T05:30:26.239Z,15.25
2018-03-26T05:31:26.866Z,15.28
2018-03-26T05:32:27.441Z,15.28
2018-03-26T05:33:28.066Z,15.31
2018-03-26T05:34:28.642Z,15.25
2018-03-26T05:35:29.219Z,15.25
2018-03-26T05:36:29.795Z,15.25
2018-03-26T05:37:30.370Z,15.28
2018-03-26T05:38:30.947Z,15.31
2018-03-26T05:39:31.524Z,15.31
2018-03-26T05:40:32.123Z,15.27
2018-03-26T05:41:32.678Z,15.27
2018-03-26T05:42:33.255Z,15.29
2018-03-26T05:43:33.832Z,15.22
2018-03-26T05:44:34.407Z,15.21
2018-03-26T05:45:34.985Z,15.28
2018-03-26T05:46:35.609Z,15.19
2018-03-26T05:47:36.233Z,15.31
2018-03-26T05:48:36.812Z,15.25
2018-03-26T05:49:37.478Z,15.24
2018-03-26T05:50:38.053Z,15.25
2018-03-26T05:51:38.629Z,15.22
2018-03-26T05:52:39.206Z,15.28
2018-03-26T05:53:39.783Z,15.28
2018-03-26T05:54:40.359Z,15.24
2018-03-26T05:55:40.935Z,15.22
2018-03-26T05:56:41.508Z,15.19
2018-03-26T05:57:42.084Z,15.17
2018-03-26T05:58:42.659Z,15.35
2018-03-26T05:59:43.241Z,15.21
2018-03-26T06:00:43.810Z,15.19
2018-03-26T06:01:44.385Z,15.19
2018-03-26T06:02:44.961Z,15.15
2018-03-26T06:03:45.688Z,15.18
2018-03-26T06:04:46.315Z,15.15
2018-03-26T06:05:46.891Z,15.17
2018-03-26T06:06:47.468Z,15.18
2018-03-26T06:07:48.042Z,15.17
2018-03-26T06:08:48.619Z,15.17
2018-03-26T06:09:49.244Z,15.17
2018-03-26T06:10:49.871Z,15.15
2018-03-26T06:11:50.445Z,15.15
2018-03-26T06:12:51.019Z,15.17
2018-03-26T06:13:51.594Z,15.14
2018-03-26T06:14:52.173Z,15.14
2018-03-26T06:17:55.901Z,15.18
2018-03-26T06:20:23.873Z,15.17
2018-03-26T06:21:24.439Z,15.11
2018-03-26T06:22:25.060Z,15.22
2018-03-26T06:23:25.680Z,15.14
2018-03-26T06:24:26.250Z,15.11
2018-03-26T06:25:26.820Z,15.22
2018-03-26T06:26:27.446Z,15.18
2018-03-26T06:27:28.024Z,15.21
2018-03-26T06:28:28.601Z,15.17
2018-03-26T06:29:29.179Z,15.06
2018-03-26T06:30:29.795Z,15.17
2018-03-26T06:31:30.330Z,15.14
2018-03-26T06:32:30.908Z,15.15
2018-03-26T06:33:31.486Z,15.14
2018-03-26T06:34:32.062Z,15.14
2018-03-26T06:35:32.639Z,15.18
2018-03-26T06:36:33.216Z,15.10
2018-03-26T06:37:33.793Z,15.11
2018-03-26T06:38:34.367Z,15.10
2018-03-26T06:39:34.944Z,15.21
2018-03-26T06:40:35.522Z,15.19
2018-03-26T06:41:36.096Z,15.21
2018-03-26T06:42:36.672Z,15.11
2018-03-26T06:43:37.247Z,15.15
2018-03-26T06:44:37.874Z,15.09
2018-03-26T06:45:38.455Z,15.10
2018-03-26T06:46:39.075Z,15.09
2018-03-26T06:47:39.655Z,15.04
2018-03-26T06:48:40.230Z,15.06
2018-03-26T06:49:40.859Z,15.14
2018-03-26T06:50:41.481Z,15.14
2018-03-26T06:51:42.058Z,15.15
2018-03-26T06:52:42.640Z,15.17
2018-03-26T06:53:43.214Z,15.17
2018-03-26T06:54:43.790Z,15.14
2018-03-26T06:55:44.369Z,15.14
2018-03-26T06:56:44.981Z,15.17
2018-03-26T06:57:45.519Z,15.10
2018-03-26T06:58:46.098Z,15.09
2018-03-26T06:59:46.669Z,15.18
2018-03-26T07:00:47.244Z,15.07
2018-03-26T07:01:47.824Z,15.11
2018-03-26T07:02:48.747Z,15.17
2018-03-26T07:03:49.373Z,15.14
2018-03-26T07:04:49.950Z,15.15
2018-03-26T07:05:50.576Z,15.14
2018-03-26T07:06:51.150Z,15.11
2018-03-26T07:07:51.754Z,15.06
2018-03-26T07:08:52.300Z,15.09
2018-03-26T07:09:52.877Z,15.00
2018-03-26T07:10:53.503Z,15.10
2018-03-26T07:11:54.079Z,15.00
2018-03-26T07:12:54.652Z,15.14
2018-03-26T07:13:55.227Z,15.10
2018-03-26T07:14:55.802Z,14.97
2018-03-26T07:15:56.377Z,14.97
2018-03-26T07:16:56.951Z,15.03
2018-03-26T07:17:57.527Z,15.02
2018-03-26T07:18:58.116Z,14.99
2018-03-26T07:19:58.713Z,14.94
2018-03-26T07:20:59.338Z,15.00
2018-03-26T07:21:59.915Z,14.99
2018-03-26T07:23:00.493Z,15.02
2018-03-26T07:24:01.069Z,15.02
2018-03-26T07:25:01.645Z,15.02
2018-03-26T07:26:02.220Z,14.99
2018-03-26T07:27:02.796Z,14.99
2018-03-26T07:28:03.521Z,15.00
2018-03-26T07:29:04.099Z,15.03
2018-03-26T07:30:04.675Z,14.99
2018-03-26T07:31:05.252Z,14.99
2018-03-26T07:32:05.878Z,15.04
2018-03-26T07:33:06.453Z,15.02
2018-03-26T07:34:07.032Z,15.00
2018-03-26T07:35:07.610Z,14.97
2018-03-26T07:36:08.339Z,15.00
2018-03-26T07:37:08.920Z,15.02
2018-03-26T07:38:09.495Z,15.09
2018-03-26T07:39:10.066Z,15.11
2018-03-26T07:40:10.643Z,15.09
2018-03-26T07:41:11.246Z,15.04
2018-03-26T07:42:11.800Z,15.10
2018-03-26T07:43:12.466Z,15.00
2018-03-26T07:44:13.038Z,15.03
2018-03-26T07:45:13.615Z,15.02
2018-03-26T07:46:14.186Z,15.03
2018-03-26T07:47:14.760Z,15.10
2018-03-26T07:48:15.334Z,15.06
2018-03-26T07:49:15.909Z,14.97
2018-03-26T07:50:16.484Z,15.15
2018-03-26T07:51:17.110Z,14.99
2018-03-26T07:52:17.686Z,15.06
2018-03-26T07:53:18.262Z,15.10
2018-03-26T07:54:18.837Z,15.07
2018-03-26T07:55:19.412Z,14.99
2018-03-26T07:56:19.987Z,15.04
2018-03-26T07:57:20.562Z,15.07
2018-03-26T07:58:21.138Z,15.14
2018-03-26T07:59:21.773Z,15.09
2018-03-26T08:00:22.339Z,15.10
2018-03-26T08:01:22.963Z,15.10
2018-03-26T08:02:23.539Z,15.03
2018-03-26T08:03:24.115Z,15.09
2018-03-26T08:04:24.693Z,15.14
2018-03-26T08:05:25.271Z,15.10
2018-03-26T08:06:25.847Z,15.09
2018-03-26T08:07:26.422Z,15.14
2018-03-26T08:08:27.047Z,15.15
2018-03-26T08:09:27.624Z,15.10
2018-03-26T08:10:28.251Z,15.11
2018-03-26T08:11:28.853Z,15.17
2018-03-26T08:12:29.395Z,15.10
2018-03-26T08:13:29.970Z,15.10
2018-03-26T08:14:30.545Z,15.17
2018-03-26T08:15:31.119Z,15.10
2018-03-26T08:16:31.697Z,15.10
2018-03-26T08:17:32.320Z,15.10
2018-03-26T08:18:32.896Z,15.17
2018-03-26T08:19:33.473Z,15.11
2018-03-26T08:20:34.048Z,15.10
2018-03-26T08:21:34.622Z,15.15
2018-03-26T08:22:35.247Z,15.07
2018-03-26T08:23:35.823Z,15.11
2018-03-26T08:24:36.400Z,15.17
2018-03-26T08:25:37.025Z,15.07
2018-03-26T08:26:37.600Z,15.09
2018-03-26T08:27:38.174Z,15.09
2018-03-26T08:28:38.748Z,15.10
2018-03-26T08:29:39.326Z,15.15
2018-03-26T08:30:39.906Z,15.17
2018-03-26T08:31:40.487Z,15.21
2018-03-26T08:32:41.067Z,15.27
2018-03-26T08:33:41.646Z,15.35
2018-03-26T08:34:42.229Z,15.31
2018-03-26T08:35:42.860Z,15.31
2018-03-26T08:36:43.439Z,15.37
2018-03-26T08:37:44.070Z,15.39
2018-03-26T08:38:44.650Z,15.37
2018-03-26T08:39:45.228Z,15.36
2018-03-26T08:40:45.808Z,15.31
2018-03-26T08:41:46.391Z,15.43
2018-03-26T08:42:47.021Z,15.42
2018-03-26T08:43:47.601Z,15.46
2018-03-26T08:44:48.185Z,15.42
2018-03-26T08:45:48.813Z,15.47
2018-03-26T08:46:49.395Z,15.39
2018-03-26T08:47:49.974Z,15.49
2018-03-26T08:48:50.551Z,15.47
2018-03-26T08:49:51.235Z,15.47
2018-03-26T08:50:51.712Z,15.46
2018-03-26T08:51:52.292Z,15.47
2018-03-26T08:52:52.923Z,15.44
2018-03-26T08:53:53.503Z,15.43
2018-03-26T08:54:54.086Z,15.44
2018-03-26T08:55:54.665Z,15.44
2018-03-26T08:56:55.296Z,15.44
2018-03-26T08:57:55.878Z,15.44
2018-03-26T08:58:56.458Z,15.52
2018-03-26T08:59:57.188Z,15.57
2018-03-26T09:00:57.769Z,15.52
2018-03-26T09:01:58.350Z,15.47
2018-03-26T09:02:58.931Z,15.47
2018-03-26T09:03:59.513Z,15.43
2018-03-26T09:05:00.092Z,15.51
2018-03-26T09:06:00.672Z,15.49
2018-03-26T09:07:01.256Z,15.55
2018-03-26T09:08:01.832Z,15.51
2018-03-26T09:09:02.415Z,15.54
2018-03-26T09:10:02.992Z,15.59
2018-03-26T09:11:03.574Z,15.59
2018-03-26T09:12:04.152Z,15.57
2018-03-26T09:13:04.781Z,15.58
2018-03-26T09:14:05.361Z,15.55
2018-03-26T09:15:05.942Z,15.65
2018-03-26T09:16:06.530Z,15.62
2018-03-26T09:17:07.104Z,15.64
2018-03-26T09:18:07.734Z,15.65
2018-03-26T09:19:08.364Z,15.59
2018-03-26T09:20:08.945Z,15.59
2018-03-26T09:21:09.579Z,15.65
2018-03-26T09:22:10.158Z,15.67
2018-03-26T09:23:10.739Z,15.65
2018-03-26T09:24:11.320Z,15.67
2018-03-26T09:25:11.900Z,15.77
2018-03-26T09:26:12.531Z,15.68
2018-03-26T09:27:13.112Z,15.70
2018-03-26T09:28:13.694Z,15.67
2018-03-26T09:29:14.275Z,15.77
2018-03-26T09:30:14.856Z,15.68
2018-03-26T09:31:15.437Z,15.75
2018-03-26T09:32:16.019Z,15.76
2018-03-26T09:33:16.596Z,15.65
2018-03-26T09:34:17.229Z,15.72
2018-03-26T09:35:17.807Z,15.67
2018-03-26T09:36:18.438Z,15.79
2018-03-26T09:37:19.018Z,15.72
2018-03-26T09:38:19.598Z,15.73
2018-03-26T09:39:20.177Z,15.68
2018-03-26T09:40:20.759Z,15.83
2018-03-26T09:41:21.339Z,15.83
2018-03-26T09:42:21.921Z,15.84
2018-03-26T09:43:22.509Z,15.88
2018-03-26T09:44:23.089Z,15.91
2018-03-26T09:45:23.667Z,15.84
2018-03-26T09:46:24.245Z,15.91
2018-03-26T09:47:24.825Z,15.86
2018-03-26T09:48:25.407Z,15.83
2018-03-26T09:49:25.990Z,15.86
2018-03-26T09:50:26.621Z,15.90
2018-03-26T09:51:27.252Z,15.95
2018-03-26T09:52:27.883Z,15.97
2018-03-26T09:53:28.466Z,16.00
2018-03-26T09:54:29.044Z,15.92
2018-03-26T09:55:29.625Z,15.95
2018-03-26T09:56:30.209Z,16.08
2018-03-26T09:57:30.787Z,16.04
2018-03-26T09:58:31.367Z,16.09
2018-03-26T09:59:31.958Z,16.05
2018-03-26T10:00:32.528Z,16.17
2018-03-26T10:01:33.115Z,16.23
2018-03-26T10:02:33.736Z,16.21
2018-03-26T10:03:34.316Z,16.24
2018-03-26T10:04:34.898Z,16.24
2018-03-26T10:05:35.523Z,16.23
2018-03-26T10:06:36.957Z,16.32
2018-03-26T10:07:37.538Z,16.28
2018-03-26T10:08:38.165Z,16.29
2018-03-26T10:09:38.744Z,16.32
2018-03-26T10:10:39.325Z,16.32
2018-03-26T10:11:39.907Z,16.32
2018-03-26T10:12:40.486Z,16.36
2018-03-26T10:13:41.107Z,16.43
2018-03-26T10:14:41.739Z,16.46
2018-03-26T10:15:42.319Z,16.43
2018-03-26T10:16:42.903Z,16.47
2018-03-26T10:17:43.485Z,16.46
2018-03-26T10:18:44.064Z,16.42
2018-03-26T10:19:44.665Z,16.49
2018-03-26T10:20:45.229Z,16.47
2018-03-26T10:21:45.809Z,16.54
2018-03-26T10:22:46.390Z,16.58
2018-03-26T10:23:47.023Z,16.65
2018-03-26T10:24:47.607Z,16.60
2018-03-26T10:25:48.190Z,16.65
2018-03-26T10:26:48.771Z,16.66
2018-03-26T10:27:49.354Z,16.66
2018-03-26T10:28:49.936Z,16.71
2018-03-26T10:29:50.569Z,16.83
2018-03-26T10:30:51.153Z,16.75
2018-03-26T10:31:51.779Z,16.78
2018-03-26T10:32:52.361Z,16.91
2018-03-26T10:33:52.943Z,16.93
2018-03-26T10:34:53.525Z,16.91
2018-03-26T10:35:54.106Z,16.94
2018-03-26T10:36:54.690Z,16.94
2018-03-26T10:37:55.273Z,16.93
2018-03-26T10:38:55.857Z,17.02
2018-03-26T10:39:56.442Z,16.90
2018-03-26T10:40:57.022Z,16.97
2018-03-26T10:41:57.655Z,17.02
2018-03-26T10:42:58.241Z,17.02
2018-03-26T10:43:58.871Z,17.04
2018-03-26T10:44:59.459Z,17.04
2018-03-26T10:46:00.036Z,17.06
2018-03-26T10:47:00.618Z,17.22
2018-03-26T10:48:01.250Z,17.12
2018-03-26T10:49:01.874Z,17.14
2018-03-26T10:50:02.457Z,17.27
2018-03-26T10:51:03.091Z,17.30
2018-03-26T10:52:03.626Z,17.26
2018-03-26T10:53:04.212Z,17.36
2018-03-26T10:54:04.797Z,17.44
2018-03-26T10:55:05.382Z,17.44
2018-03-26T10:56:05.965Z,17.42
2018-03-26T10:57:06.553Z,17.45
2018-03-26T10:58:07.187Z,17.56
2018-03-26T10:59:07.924Z,17.60
2018-03-26T11:00:08.563Z,17.68
2018-03-26T11:01:09.153Z,17.74
2018-03-26T11:02:09.739Z,17.78
2018-03-26T11:03:10.326Z,17.83
2018-03-26T11:04:10.916Z,17.80
2018-03-26T11:05:11.505Z,17.97
2018-03-26T11:06:12.092Z,18.00
2018-03-26T11:07:12.735Z,18.10
2018-03-26T11:08:13.321Z,18.13
2018-03-26T11:09:13.912Z,18.25
2018-03-26T11:10:14.500Z,18.25
2018-03-26T11:11:15.088Z,18.31
2018-03-26T11:12:15.679Z,18.38
2018-03-26T11:13:16.269Z,18.56
2018-03-26T11:14:16.861Z,18.50
2018-03-26T11:15:17.453Z,18.59
2018-03-26T11:16:18.088Z,18.68
2018-03-26T11:17:18.678Z,18.73
2018-03-26T11:18:19.320Z,18.81
2018-03-26T11:19:19.960Z,18.89
2018-03-26T11:20:20.550Z,18.88
2018-03-26T11:21:21.141Z,19.04
2018-03-26T11:22:21.732Z,19.18
2018-03-26T11:23:22.325Z,19.14
2018-03-26T11:24:22.918Z,19.16
2018-03-26T11:25:23.560Z,19.33
2018-03-26T11:26:24.157Z,19.30
2018-03-26T11:27:24.748Z,19.39
2018-03-26T11:28:25.342Z,19.44
2018-03-26T11:29:25.935Z,19.48
2018-03-26T11:30:26.733Z,19.70
2018-03-26T11:31:27.369Z,19.66
2018-03-26T11:32:27.963Z,19.79
2018-03-26T11:33:28.556Z,19.84
2018-03-26T11:34:29.153Z,19.89
2018-03-26T11:35:29.747Z,19.96
2018-03-26T11:36:30.441Z,19.92
2018-03-26T11:37:31.034Z,20.02
2018-03-26T11:39:33.212Z,20.13
2018-03-26T11:40:33.806Z,20.14
2018-03-26T11:41:34.402Z,20.22
2018-03-26T11:42:34.998Z,20.29
2018-03-26T11:43:35.585Z,20.28
2018-03-26T11:44:36.180Z,20.34
2018-03-26T11:45:36.825Z,20.41
2018-03-26T11:46:37.420Z,20.44
2018-03-26T11:48:53.366Z,20.66
2018-03-26T11:51:25.338Z,20.72
2018-03-26T11:53:27.577Z,20.93
2018-03-26T11:54:28.225Z,20.97
2018-03-26T11:55:28.771Z,21.03
2018-03-26T11:56:29.421Z,21.00
2018-03-26T11:57:30.020Z,21.11
2018-03-26T11:58:30.617Z,21.12
2018-03-26T11:59:31.216Z,21.24
2018-03-26T12:00:31.816Z,21.33
2018-03-26T12:01:32.416Z,21.42
2018-03-26T12:02:33.014Z,21.50
2018-03-26T12:03:33.610Z,21.60
2018-03-26T12:04:34.260Z,21.67
2018-03-26T12:05:34.859Z,21.70
2018-03-26T12:06:35.463Z,21.91
2018-03-26T12:07:36.055Z,21.93
2018-03-26T12:08:36.654Z,22.02
2018-03-26T12:09:37.303Z,22.06
2018-03-26T12:10:37.905Z,22.23
2018-03-26T12:11:38.500Z,22.25
2018-03-26T12:12:39.099Z,22.26
2018-03-26T12:13:39.754Z,22.35
2018-03-26T12:14:40.428Z,22.50
2018-03-26T12:15:41.023Z,22.65
2018-03-26T12:17:43.262Z,22.70
2018-03-26T12:18:43.850Z,22.75
2018-03-26T12:19:44.442Z,22.80
2018-03-26T12:20:45.034Z,22.84
2018-03-26T12:21:45.641Z,23.08
2018-03-26T12:22:46.386Z,23.12
2018-03-26T12:23:46.984Z,23.24
2018-03-26T12:24:47.587Z,23.25
2018-03-26T12:25:48.187Z,23.25
2018-03-26T12:26:48.786Z,23.39
2018-03-26T12:27:49.435Z,23.48
2018-03-26T12:28:50.040Z,23.65
2018-03-26T12:29:50.678Z,23.73
2018-03-26T12:30:51.326Z,23.77
2018-03-26T12:31:51.926Z,23.84
2018-03-26T12:32:52.525Z,23.91
2018-03-26T12:33:53.176Z,23.96
2018-03-26T12:34:53.772Z,24.03
2018-03-26T12:35:54.373Z,24.10
2018-03-26T12:36:54.974Z,24.06
2018-03-26T12:37:55.572Z,24.21
2018-03-26T12:38:56.172Z,24.24
2018-03-26T12:39:56.774Z,24.39
2018-03-26T12:40:57.378Z,24.50
2018-03-26T12:41:57.967Z,24.51
2018-03-26T12:42:58.567Z,24.53
2018-03-26T12:43:59.215Z,24.61
2018-03-26T12:44:59.812Z,24.58
2018-03-26T12:46:00.463Z,24.74
2018-03-26T12:47:01.062Z,24.81
2018-03-26T12:48:01.731Z,24.92
2018-03-26T12:49:02.301Z,25.04
2018-03-26T12:50:02.900Z,25.14
2018-03-26T12:51:03.501Z,25.10
2018-03-26T12:52:04.103Z,25.21
2018-03-26T12:53:04.699Z,25.25
2018-03-26T12:54:05.300Z,25.26
2018-03-26T12:55:05.949Z,25.36
2018-03-26T12:56:06.547Z,25.40
2018-03-26T12:57:07.147Z,25.35
2018-03-26T12:58:07.750Z,25.50
2018-03-26T12:59:08.399Z,25.53
2018-03-26T13:00:08.998Z,25.66
2018-03-26T13:01:09.649Z,25.68
2018-03-26T13:02:10.248Z,25.80
2018-03-26T13:03:10.850Z,25.77
2018-03-26T13:04:11.450Z,25.80
2018-03-26T13:05:12.050Z,25.88
2018-03-26T13:06:12.650Z,26.00
2018-03-26T13:07:13.251Z,25.98
2018-03-26T13:08:13.851Z,26.19
2018-03-26T13:09:14.453Z,26.19
2018-03-26T13:10:15.105Z,26.23
2018-03-26T13:11:15.707Z,26.29
2018-03-26T13:12:16.306Z,26.34